createdAt,value
2023-05-05T00:01:46.810Z,5.93
2023-05-05T00:04:13.981Z,4.83
2023-05-05T00:06:40.890Z,5.13
2023-05-05T00:09:07.831Z,5.17
2023-05-05T00:11:34.646Z,4.87
2023-05-05T00:14:01.929Z,4.87
2023-05-05T00:16:30.138Z,5.30
2023-05-05T00:18:57.538Z,5.10
2023-05-05T00:21:24.528Z,5.80
2023-05-05T00:23:51.658Z,5.07
2023-05-05T00:26:18.513Z,5.37
2023-05-05T00:28:46.007Z,5.70
2023-05-05T00:31:15.355Z,5.43
2023-05-05T00:33:43.941Z,5.00
2023-05-05T00:36:10.811Z,5.30
2023-05-05T00:38:38.394Z,5.33
2023-05-05T00:41:05.319Z,5.10
2023-05-05T00:43:32.689Z,4.47
2023-05-05T00:46:02.893Z,5.20
2023-05-05T00:48:30.930Z,5.30
2023-05-05T00:50:59.494Z,5.43
2023-05-05T00:53:27.515Z,5.13
2023-05-05T00:55:54.480Z,5.37
2023-05-05T00:58:21.750Z,4.80
2023-05-05T01:00:48.750Z,5.63
2023-05-05T01:03:16.167Z,5.40
2023-05-05T01:05:53.232Z,4.90
2023-05-05T01:08:36.026Z,4.83
2023-05-05T01:11:08.615Z,5.23
2023-05-05T01:13:48.384Z,5.27
2023-05-05T01:16:19.232Z,4.93
2023-05-05T01:18:54.271Z,5.57
2023-05-05T01:21:28.418Z,5.30
2023-05-05T01:24:26.392Z,5.50
2023-05-05T01:27:10.781Z,5.30
2023-05-05T01:30:08.654Z,5.10
2023-05-05T01:32:41.517Z,5.10
2023-05-05T01:35:18.154Z,5.20
2023-05-05T01:37:49.352Z,5.10
2023-05-05T01:40:20.044Z,5.10
2023-05-05T01:42:48.460Z,5.70
2023-05-05T01:45:17.794Z,5.73
2023-05-05T01:47:47.923Z,5.50
2023-05-05T01:50:15.963Z,5.13
2023-05-05T01:52:44.132Z,6.07
2023-05-05T01:55:14.009Z,5.70
2023-05-05T01:57:43.056Z,5.80
2023-05-05T02:00:11.570Z,5.57
2023-05-05T02:02:40.757Z,5.73
2023-05-05T02:05:10.121Z,5.50
2023-05-05T02:07:37.815Z,5.57
2023-05-05T02:10:06.767Z,5.73
2023-05-05T02:12:35.587Z,5.90
2023-05-05T02:15:03.607Z,5.70
2023-05-05T02:17:31.207Z,5.80
2023-05-05T02:20:01.457Z,5.43
2023-05-05T02:22:30.097Z,5.00
2023-05-05T02:24:56.947Z,5.13
2023-05-05T02:27:25.760Z,5.53
2023-05-05T02:30:01.474Z,5.67
2023-05-05T02:32:34.063Z,5.23
2023-05-05T02:35:09.083Z,5.07
2023-05-05T02:37:39.499Z,4.97
2023-05-05T02:40:09.202Z,5.50
2023-05-05T02:42:39.525Z,5.47
2023-05-05T02:45:11.237Z,5.17
2023-05-05T02:47:39.386Z,6.30
2023-05-05T02:50:08.281Z,5.63
2023-05-05T02:52:37.857Z,6.10
2023-05-05T02:55:05.797Z,5.63
2023-05-05T02:57:38.250Z,5.60
2023-05-05T03:00:10.500Z,5.80
2023-05-05T03:02:45.394Z,6.20
2023-05-05T03:05:17.104Z,5.70
2023-05-05T03:07:53.865Z,5.80
2023-05-05T03:10:26.016Z,5.47
2023-05-05T03:12:55.656Z,5.67
2023-05-05T03:15:26.428Z,5.80
2023-05-05T03:17:54.351Z,6.23
2023-05-05T03:20:22.418Z,5.90
2023-05-05T03:22:52.062Z,5.57
2023-05-05T03:25:18.908Z,5.80
2023-05-05T03:27:46.066Z,5.73
2023-05-05T03:30:13.488Z,5.90
2023-05-05T03:32:40.390Z,5.93
2023-05-05T03:35:08.104Z,6.30
2023-05-05T03:37:34.984Z,6.37
2023-05-05T03:40:04.113Z,6.33
2023-05-05T03:42:30.851Z,5.93
2023-05-05T03:44:57.925Z,5.97
2023-05-05T03:47:24.841Z,6.00
2023-05-05T03:49:51.902Z,6.53
2023-05-05T03:52:18.795Z,6.10
2023-05-05T03:54:46.433Z,6.30
2023-05-05T03:57:14.564Z,6.50
2023-05-05T03:59:41.390Z,5.90
2023-05-05T04:02:08.606Z,6.27
2023-05-05T04:04:35.941Z,5.50
2023-05-05T04:07:02.798Z,6.30
2023-05-05T04:09:29.609Z,5.93
2023-05-05T04:11:56.406Z,6.73
2023-05-05T04:14:25.100Z,6.63
2023-05-05T04:16:51.904Z,5.90
2023-05-05T04:19:19.090Z,5.80
2023-05-05T04:21:45.912Z,5.83
2023-05-05T04:24:13.130Z,6.33
2023-05-05T04:26:40.147Z,6.93
2023-05-05T04:29:07.273Z,6.50
2023-05-05T04:31:35.507Z,7.00
2023-05-05T04:34:02.792Z,5.97
2023-05-05T04:36:29.703Z,5.73
2023-05-05T04:38:56.860Z,6.30
2023-05-05T04:41:24.035Z,6.43
2023-05-05T04:43:51.002Z,6.10
2023-05-05T04:46:17.820Z,6.50
2023-05-05T04:48:46.308Z,6.37
2023-05-05T04:51:13.138Z,6.40
2023-05-05T04:53:40.391Z,7.03
2023-05-05T04:56:07.524Z,7.20
2023-05-05T04:58:34.784Z,6.93
2023-05-05T05:01:01.757Z,6.90
2023-05-05T05:03:29.085Z,6.80
2023-05-05T05:05:57.455Z,6.77
2023-05-05T05:08:24.482Z,6.70
2023-05-05T05:10:51.326Z,7.00
2023-05-05T05:13:18.603Z,6.90
2023-05-05T05:15:45.867Z,7.10
2023-05-05T05:18:12.743Z,6.70
2023-05-05T05:20:39.860Z,6.60
2023-05-05T05:23:07.935Z,6.17
2023-05-05T05:25:34.736Z,6.50
2023-05-05T05:28:10.064Z,6.27
2023-05-05T05:30:37.812Z,6.67
2023-05-05T05:33:05.207Z,6.10
2023-05-05T05:35:32.242Z,6.37
2023-05-05T05:37:59.454Z,6.40
2023-05-05T05:40:27.596Z,6.27
2023-05-05T05:42:54.756Z,6.73
2023-05-05T05:45:21.978Z,6.33
2023-05-05T05:47:49.236Z,6.10
2023-05-05T05:50:16.083Z,6.87
2023-05-05T05:52:43.118Z,6.90
2023-05-05T05:55:10.014Z,6.80
2023-05-05T05:57:38.606Z,6.93
2023-05-05T06:00:06.715Z,6.17
2023-05-05T06:02:34.155Z,6.33
2023-05-05T06:05:01.035Z,6.13
2023-05-05T06:07:28.077Z,6.70
2023-05-05T06:09:54.756Z,6.20
2023-05-05T06:12:21.934Z,6.57
2023-05-05T06:14:50.066Z,7.33
2023-05-05T06:17:17.297Z,6.83
2023-05-05T06:19:44.212Z,7.70
2023-05-05T06:22:11.250Z,6.50
2023-05-05T06:24:38.140Z,6.57
2023-05-05T06:27:05.886Z,6.37
2023-05-05T06:29:32.689Z,6.30
2023-05-05T06:32:01.732Z,6.97
2023-05-05T06:34:28.539Z,6.83
2023-05-05T06:36:55.889Z,6.93
2023-05-05T06:39:22.659Z,6.73
2023-05-05T06:41:49.981Z,7.77
2023-05-05T06:44:16.887Z,9.70
2023-05-05T06:46:44.130Z,8.10
2023-05-05T06:49:12.318Z,6.70
2023-05-05T06:51:41.037Z,6.83
2023-05-05T06:54:09.429Z,7.30
2023-05-05T06:56:36.545Z,6.73
2023-05-05T06:59:03.274Z,7.67
2023-05-05T07:01:30.414Z,7.90
2023-05-05T07:03:57.573Z,7.37
2023-05-05T07:06:26.341Z,6.97
2023-05-05T07:08:53.213Z,7.00
2023-05-05T07:11:20.330Z,6.70
2023-05-05T07:13:49.281Z,6.93
2023-05-05T07:16:16.423Z,10.70
2023-05-05T07:18:43.249Z,8.50
2023-05-05T07:21:10.464Z,7.80
2023-05-05T07:23:40.515Z,7.90
2023-05-05T07:26:07.717Z,7.27
2023-05-05T07:28:35.116Z,6.30
2023-05-05T07:31:02.489Z,6.70
2023-05-05T07:33:29.289Z,6.17
2023-05-05T07:35:56.561Z,6.60
2023-05-05T07:38:25.241Z,6.27
2023-05-05T07:40:53.751Z,6.53
2023-05-05T07:43:20.739Z,6.33
2023-05-05T07:45:48.085Z,6.00
2023-05-05T07:48:14.879Z,5.73
2023-05-05T07:50:42.106Z,5.80
2023-05-05T07:53:14.365Z,11.57
2023-05-05T07:55:42.131Z,8.77
2023-05-05T07:58:11.098Z,7.20
2023-05-05T08:00:38.593Z,6.57
2023-05-05T08:03:06.291Z,6.47
2023-05-05T08:05:34.853Z,5.90
2023-05-05T08:08:01.741Z,6.17
2023-05-05T08:10:29.016Z,6.22
2023-05-05T08:12:55.988Z,6.60
2023-05-05T08:15:24.520Z,6.40
2023-05-05T08:17:52.813Z,7.60
2023-05-05T08:20:20.882Z,6.70
2023-05-05T08:22:48.340Z,6.83
2023-05-05T08:25:15.359Z,6.50
2023-05-05T08:27:43.627Z,6.77
2023-05-05T08:30:12.158Z,6.53
2023-05-05T08:32:40.899Z,7.27
2023-05-05T08:35:08.384Z,6.90
2023-05-05T08:37:35.674Z,7.13
2023-05-05T08:40:02.570Z,6.97
2023-05-05T08:42:38.129Z,7.63
2023-05-05T08:45:08.080Z,6.80
2023-05-05T08:47:35.619Z,7.10
2023-05-05T08:50:05.917Z,6.82
2023-05-05T08:52:40.252Z,6.95
2023-05-05T08:55:14.562Z,6.32
2023-05-05T08:57:48.672Z,6.55
2023-05-05T09:00:18.658Z,6.32
2023-05-05T09:02:46.686Z,6.75
2023-05-05T09:05:15.960Z,6.90
2023-05-05T09:07:44.117Z,6.78
2023-05-05T09:10:12.269Z,6.60
2023-05-05T09:12:41.021Z,6.75
2023-05-05T09:15:09.451Z,6.20
2023-05-05T09:17:36.933Z,6.50
2023-05-05T09:20:07.075Z,6.70
2023-05-05T09:22:37.643Z,6.65
2023-05-05T09:25:06.163Z,6.30
2023-05-05T09:27:36.628Z,6.97
2023-05-05T09:30:04.667Z,6.55
2023-05-05T09:32:43.037Z,6.00
2023-05-05T09:35:10.164Z,7.38
2023-05-05T09:37:39.190Z,6.28
2023-05-05T09:40:09.143Z,6.40
2023-05-05T09:42:37.454Z,6.53
2023-05-05T09:45:23.778Z,6.53
2023-05-05T09:47:51.971Z,6.30
2023-05-05T09:50:23.521Z,6.72
2023-05-05T09:53:07.578Z,6.93
2023-05-05T09:55:36.351Z,6.30
2023-05-05T09:58:18.583Z,6.13
2023-05-05T10:00:46.768Z,6.40
2023-05-05T10:03:13.678Z,6.00
2023-05-05T10:05:49.305Z,6.00
2023-05-05T10:08:18.791Z,6.03
2023-05-05T10:10:53.547Z,5.82
2023-05-05T10:13:22.678Z,5.80
2023-05-05T10:15:51.813Z,6.00
2023-05-05T10:18:21.500Z,6.47
2023-05-05T10:20:52.551Z,6.75
2023-05-05T10:23:24.031Z,6.45
2023-05-05T10:25:55.600Z,6.57
2023-05-05T10:28:29.792Z,6.53
2023-05-05T10:31:00.824Z,6.15
2023-05-05T10:33:35.216Z,6.15
2023-05-05T10:36:06.970Z,6.28
2023-05-05T10:38:36.038Z,6.53
2023-05-05T10:41:04.181Z,6.60
2023-05-05T10:43:32.007Z,6.05
2023-05-05T10:46:00.310Z,6.90
2023-05-05T10:48:34.571Z,6.15
2023-05-05T10:51:27.516Z,6.80
2023-05-05T10:54:14.122Z,6.35
2023-05-05T10:56:42.122Z,6.03
2023-05-05T10:59:39.856Z,6.43
2023-05-05T11:02:22.437Z,6.03
2023-05-05T11:05:08.581Z,5.53
2023-05-05T11:07:35.999Z,6.18
2023-05-05T11:10:05.713Z,5.80
2023-05-05T11:12:34.638Z,5.88
2023-05-05T11:15:35.821Z,6.35
2023-05-05T11:18:06.702Z,6.25
2023-05-05T11:21:17.199Z,6.20
2023-05-05T11:23:49.371Z,5.75
2023-05-05T11:26:18.762Z,5.13
2023-05-05T11:29:00.742Z,5.53
2023-05-05T11:31:28.535Z,5.65
2023-05-05T11:33:55.576Z,6.20
2023-05-05T11:36:40.039Z,5.00
2023-05-05T11:39:20.173Z,5.80
2023-05-05T11:42:21.161Z,5.50
2023-05-05T11:44:49.028Z,4.90
2023-05-05T11:47:29.726Z,5.75
2023-05-05T11:49:57.491Z,5.80
2023-05-05T11:52:26.342Z,6.32
2023-05-05T11:54:53.587Z,7.05
2023-05-05T11:57:28.681Z,6.47
2023-05-05T11:59:57.356Z,6.88
2023-05-05T12:02:27.256Z,6.40
2023-05-05T12:04:55.402Z,6.68
2023-05-05T12:07:24.323Z,6.18
2023-05-05T12:09:51.967Z,6.13
2023-05-05T12:12:19.333Z,5.70
2023-05-05T12:14:51.827Z,6.30
2023-05-05T12:17:19.838Z,5.82
2023-05-05T12:19:52.965Z,5.45
2023-05-05T12:22:21.757Z,5.70
2023-05-05T12:24:59.003Z,5.50
2023-05-05T12:27:27.371Z,5.38
2023-05-05T12:29:57.991Z,5.30
2023-05-05T12:32:26.268Z,7.32
2023-05-05T12:34:54.610Z,6.70
2023-05-05T12:37:22.400Z,5.18
2023-05-05T12:39:50.305Z,5.28
2023-05-05T12:42:18.203Z,5.68
2023-05-05T12:44:46.659Z,5.45
2023-05-05T12:47:29.040Z,5.57
2023-05-05T12:49:55.968Z,6.25
2023-05-05T12:52:23.115Z,5.22
2023-05-05T12:54:55.122Z,5.93
2023-05-05T12:57:22.527Z,5.80
2023-05-05T12:59:49.864Z,6.40
2023-05-05T13:02:18.718Z,5.93
2023-05-05T13:04:50.764Z,6.00
2023-05-05T13:07:19.788Z,6.13
2023-05-05T13:09:48.068Z,6.00
2023-05-05T13:12:18.338Z,5.93
2023-05-05T13:14:46.674Z,7.95
2023-05-05T13:17:14.616Z,9.50
2023-05-05T13:19:45.951Z,12.15
2023-05-05T13:22:13.922Z,7.13
2023-05-05T13:24:51.789Z,5.70
2023-05-05T13:27:20.385Z,5.00
2023-05-05T13:29:47.297Z,4.75
2023-05-05T13:32:14.461Z,5.00
2023-05-05T13:34:44.010Z,5.68
2023-05-05T13:37:10.991Z,5.10
2023-05-05T13:39:37.823Z,4.38
2023-05-05T13:42:05.252Z,4.20
2023-05-05T13:44:32.249Z,4.72
2023-05-05T13:46:59.577Z,4.90
2023-05-05T13:49:26.930Z,4.28
2023-05-05T13:51:56.636Z,4.20
2023-05-05T13:54:23.499Z,3.78
2023-05-05T13:56:50.636Z,3.88
2023-05-05T13:59:17.509Z,3.80
2023-05-05T14:01:44.703Z,4.18
2023-05-05T14:04:11.766Z,3.58
2023-05-05T14:06:38.710Z,3.67
2023-05-05T14:09:08.284Z,3.63
2023-05-05T14:11:35.424Z,4.22
2023-05-05T14:14:02.736Z,3.70
2023-05-05T14:16:29.678Z,4.35
2023-05-05T14:18:56.831Z,3.90
2023-05-05T14:21:23.865Z,3.83
2023-05-05T14:23:51.136Z,3.60
2023-05-05T14:26:19.488Z,3.80
2023-05-05T14:28:49.580Z,3.70
2023-05-05T14:31:17.683Z,4.03
2023-05-05T14:33:44.838Z,4.13
2023-05-05T14:36:11.732Z,4.00
2023-05-05T14:38:38.995Z,4.45
2023-05-05T14:41:06.245Z,4.43
2023-05-05T14:43:34.743Z,4.30
2023-05-05T14:46:06.502Z,3.90
2023-05-05T14:48:34.016Z,3.63
2023-05-05T14:51:01.373Z,3.78
2023-05-05T14:53:28.155Z,3.92
2023-05-05T14:55:55.895Z,3.70
2023-05-05T14:58:24.835Z,3.80
2023-05-05T15:00:54.457Z,3.60
2023-05-05T15:03:21.461Z,5.65
2023-05-05T15:05:48.446Z,5.10
2023-05-05T15:08:15.622Z,4.63
2023-05-05T15:10:42.455Z,8.55
2023-05-05T15:13:09.796Z,4.20
2023-05-05T15:15:36.801Z,4.15
2023-05-05T15:18:05.846Z,3.53
2023-05-05T15:20:32.825Z,3.92
2023-05-05T15:22:59.722Z,3.97
2023-05-05T15:25:26.547Z,3.65
2023-05-05T15:27:54.129Z,4.18
2023-05-05T15:30:20.957Z,4.20
2023-05-05T15:32:47.971Z,3.90
2023-05-05T15:35:16.323Z,3.83
2023-05-05T15:37:43.509Z,3.70
2023-05-05T15:40:11.011Z,3.55
2023-05-05T15:42:38.324Z,3.78
2023-05-05T15:45:08.108Z,3.50
2023-05-05T15:47:35.725Z,3.45
2023-05-05T15:50:02.589Z,3.92
2023-05-05T15:52:31.308Z,3.92
2023-05-05T15:54:58.219Z,3.45
2023-05-05T15:57:25.602Z,3.47
2023-05-05T15:59:53.867Z,3.13
2023-05-05T16:02:22.259Z,3.65
2023-05-05T16:04:49.052Z,3.70
2023-05-05T16:07:17.421Z,3.80
2023-05-05T16:09:45.600Z,3.72
2023-05-05T16:12:12.748Z,3.58
2023-05-05T16:14:39.624Z,3.85
2023-05-05T16:17:07.843Z,3.95
2023-05-05T16:19:34.767Z,3.65
2023-05-05T16:22:02.433Z,3.97
2023-05-05T16:24:29.256Z,3.60
2023-05-05T16:26:57.806Z,3.03
2023-05-05T16:29:24.833Z,3.13
2023-05-05T16:31:52.107Z,4.22
2023-05-05T16:34:18.908Z,4.97
2023-05-05T16:36:46.498Z,3.63
2023-05-05T16:39:13.682Z,3.70
2023-05-05T16:41:40.761Z,4.20
2023-05-05T16:44:08.993Z,4.32
2023-05-05T16:46:37.847Z,3.38
2023-05-05T16:49:04.683Z,3.35
2023-05-05T16:51:32.057Z,6.57
2023-05-05T16:53:58.857Z,6.80
2023-05-05T16:56:25.846Z,4.40
2023-05-05T16:58:52.715Z,4.50
2023-05-05T17:01:21.056Z,5.10
2023-05-05T17:03:47.931Z,5.38
2023-05-05T17:06:14.960Z,5.18
2023-05-05T17:08:41.911Z,4.82
2023-05-05T17:11:11.485Z,5.35
2023-05-05T17:13:38.720Z,5.60
2023-05-05T17:16:05.745Z,5.78
2023-05-05T17:18:34.062Z,5.47
2023-05-05T17:21:01.156Z,6.03
2023-05-05T17:23:28.072Z,5.82
2023-05-05T17:25:55.370Z,5.53
2023-05-05T17:28:22.411Z,7.20
2023-05-05T17:30:49.740Z,7.93
2023-05-05T17:33:21.385Z,11.07
2023-05-05T17:35:50.031Z,14.40
2023-05-05T17:38:17.583Z,17.23
2023-05-05T17:40:45.134Z,18.47
2023-05-05T17:43:12.077Z,20.67
2023-05-05T17:45:39.054Z,22.27
2023-05-05T17:48:06.414Z,23.50
2023-05-05T17:50:33.290Z,27.17
2023-05-05T17:53:01.499Z,27.90
2023-05-05T17:55:28.804Z,27.60
2023-05-05T17:57:57.356Z,27.83
2023-05-05T18:00:24.833Z,29.07
2023-05-05T18:02:51.758Z,31.03
2023-05-05T18:05:18.780Z,32.37
2023-05-05T18:07:46.578Z,35.50
2023-05-05T18:10:15.238Z,34.23
2023-05-05T18:12:42.081Z,34.80
2023-05-05T18:15:09.955Z,31.73
2023-05-05T18:17:37.405Z,39.77
2023-05-05T18:20:06.858Z,32.67
2023-05-05T18:22:33.946Z,31.00
2023-05-05T18:25:01.369Z,28.80
2023-05-05T18:27:32.490Z,28.37
2023-05-05T18:30:00.196Z,29.40
2023-05-05T18:32:27.072Z,29.07
2023-05-05T18:34:54.125Z,28.83
2023-05-05T18:37:20.912Z,30.43
2023-05-05T18:39:48.083Z,29.23
2023-05-05T18:42:15.008Z,29.63
2023-05-05T18:44:43.189Z,30.23
2023-05-05T18:47:10.320Z,30.70
2023-05-05T18:49:37.568Z,31.33
2023-05-05T18:52:04.715Z,32.63
2023-05-05T18:54:31.733Z,33.23
2023-05-05T18:56:59.228Z,32.03
2023-05-05T18:59:26.284Z,31.60
2023-05-05T19:01:54.408Z,31.83
2023-05-05T19:04:30.076Z,30.33
2023-05-05T19:06:57.993Z,29.27
2023-05-05T19:09:24.960Z,30.20
2023-05-05T19:11:51.809Z,28.37
2023-05-05T19:14:18.673Z,28.90
2023-05-05T19:16:45.746Z,28.57
2023-05-05T19:19:14.591Z,27.13
2023-05-05T19:21:41.515Z,27.53
2023-05-05T19:24:09.842Z,26.93
2023-05-05T19:26:36.775Z,26.73
2023-05-05T19:29:03.886Z,28.60
2023-05-05T19:31:31.327Z,27.03
2023-05-05T19:34:01.078Z,27.63
2023-05-05T19:36:29.402Z,27.30
2023-05-05T19:38:56.602Z,27.10
2023-05-05T19:41:23.595Z,25.07
2023-05-05T19:43:50.796Z,26.77
2023-05-05T19:46:17.604Z,25.07
2023-05-05T19:48:45.316Z,25.77
2023-05-05T19:51:12.263Z,24.50
2023-05-05T19:53:42.794Z,24.27
2023-05-05T19:56:09.613Z,29.07
2023-05-05T19:58:55.485Z,31.20
2023-05-05T20:01:22.404Z,24.63
2023-05-05T20:03:49.796Z,23.27
2023-05-05T20:06:16.795Z,28.10
2023-05-05T20:08:45.868Z,24.93
2023-05-05T20:11:13.577Z,20.80
2023-05-05T20:13:40.803Z,22.07
2023-05-05T20:16:08.237Z,23.67
2023-05-05T20:18:35.206Z,22.17
2023-05-05T20:21:02.125Z,23.07
2023-05-05T20:23:29.618Z,22.10
2023-05-05T20:25:58.304Z,22.07
2023-05-05T20:28:25.367Z,19.27
2023-05-05T20:30:52.218Z,21.20
2023-05-05T20:33:19.380Z,21.50
2023-05-05T20:35:46.143Z,19.73
2023-05-05T20:38:13.820Z,21.33
2023-05-05T20:40:41.983Z,20.27
2023-05-05T20:43:10.547Z,20.17
2023-05-05T20:45:37.379Z,20.10
2023-05-05T20:48:05.607Z,20.27
2023-05-05T20:50:32.532Z,19.53
2023-05-05T20:52:59.719Z,18.67
2023-05-05T20:55:26.766Z,18.43
2023-05-05T20:57:53.603Z,18.67
2023-05-05T21:00:22.008Z,18.60
2023-05-05T21:02:49.443Z,18.67
2023-05-05T21:05:16.577Z,19.63
2023-05-05T21:07:44.974Z,18.43
2023-05-05T21:10:12.041Z,18.60
2023-05-05T21:12:40.523Z,17.93
2023-05-05T21:15:08.590Z,17.77
2023-05-05T21:17:37.254Z,18.37
2023-05-05T21:20:04.692Z,21.03
2023-05-05T21:22:31.945Z,17.50
2023-05-05T21:25:12.669Z,17.43
2023-05-05T21:27:39.795Z,17.67
2023-05-05T21:30:10.683Z,17.70
2023-05-05T21:32:39.916Z,17.00
2023-05-05T21:35:07.984Z,17.40
2023-05-05T21:37:36.704Z,17.90
2023-05-05T21:40:03.975Z,18.60
2023-05-05T21:42:31.306Z,17.20
2023-05-05T21:44:58.130Z,16.80
2023-05-05T21:47:25.235Z,16.63
2023-05-05T21:49:53.306Z,16.60
2023-05-05T21:52:20.484Z,16.37
2023-05-05T21:54:47.304Z,16.37
2023-05-05T21:57:14.418Z,16.50
2023-05-05T21:59:41.252Z,17.33
2023-05-05T22:02:08.677Z,17.03
2023-05-05T22:04:35.512Z,16.97
2023-05-05T22:07:04.041Z,16.03
2023-05-05T22:09:30.946Z,16.40
2023-05-05T22:11:58.178Z,16.17
2023-05-05T22:14:25.312Z,17.00
2023-05-05T22:16:52.586Z,17.37
2023-05-05T22:19:19.348Z,17.67
2023-05-05T22:21:46.422Z,17.50
2023-05-05T22:24:14.551Z,17.20
2023-05-05T22:26:43.526Z,17.70
2023-05-05T22:29:11.005Z,18.17
2023-05-05T22:31:38.500Z,19.37
2023-05-05T22:34:05.380Z,20.07
2023-05-05T22:36:32.630Z,20.63
2023-05-05T22:38:59.393Z,19.67
2023-05-05T22:41:27.817Z,20.57
2023-05-05T22:43:54.656Z,20.57
2023-05-05T22:46:22.029Z,20.43
2023-05-05T22:48:49.003Z,20.13
2023-05-05T22:51:16.663Z,21.30
2023-05-05T22:53:43.624Z,21.57
2023-05-05T22:56:10.746Z,20.97
2023-05-05T22:58:38.830Z,20.67
2023-05-05T23:01:06.253Z,22.40
2023-05-05T23:03:33.079Z,20.97
2023-05-05T23:06:00.254Z,20.97
2023-05-05T23:08:27.076Z,22.00
2023-05-05T23:10:54.316Z,21.83
2023-05-05T23:13:21.163Z,21.77
2023-05-05T23:15:49.658Z,21.70
2023-05-05T23:18:16.520Z,22.07
2023-05-05T23:20:44.369Z,23.20
2023-05-05T23:23:11.144Z,22.77
2023-05-05T23:25:38.288Z,22.63
2023-05-05T23:28:05.459Z,23.97
2023-05-05T23:30:32.820Z,22.80
2023-05-05T23:33:01.176Z,23.80
2023-05-05T23:35:28.682Z,23.40
2023-05-05T23:37:55.493Z,23.03
2023-05-05T23:40:22.857Z,24.07
2023-05-05T23:42:49.708Z,24.10
2023-05-05T23:45:19.203Z,23.53
2023-05-05T23:47:46.411Z,23.60
2023-05-05T23:50:14.837Z,24.50
2023-05-05T23:52:41.896Z,24.80
2023-05-05T23:55:10.164Z,26.03
2023-05-05T23:57:37.178Z,26.30
